createdAt,value
2019-04-30T00:01:07.464Z,20.13
2019-04-30T00:03:55.690Z,20.88
2019-04-30T00:06:27.346Z,20.65
2019-04-30T00:08:55.051Z,19.73
2019-04-30T00:11:27.295Z,19.90
2019-04-30T00:13:58.892Z,19.30
2019-04-30T00:16:31.090Z,20.23
2019-04-30T00:19:00.892Z,18.27
2019-04-30T00:21:28.694Z,17.40
2019-04-30T00:24:00.816Z,17.00
2019-04-30T00:26:28.304Z,17.57
2019-04-30T00:28:56.893Z,16.37
2019-04-30T00:31:28.347Z,17.65
2019-04-30T00:34:01.149Z,16.93
2019-04-30T00:36:33.864Z,17.27
2019-04-30T00:38:57.874Z,17.57
2019-04-30T00:41:30.156Z,19.30
2019-04-30T00:43:58.930Z,18.37
2019-04-30T00:46:29.441Z,18.17
2019-04-30T00:49:08.858Z,18.32
2019-04-30T00:51:29.492Z,18.43
2019-04-30T00:53:58.380Z,18.10
2019-04-30T00:56:28.331Z,19.37
2019-04-30T00:58:57.739Z,18.27
2019-04-30T01:01:29.147Z,18.35
2019-04-30T01:04:02.355Z,19.30
2019-04-30T01:06:31.220Z,18.60
2019-04-30T01:09:05.371Z,18.07
2019-04-30T01:11:31.865Z,17.15
2019-04-30T01:14:00.958Z,18.23
2019-04-30T01:16:32.867Z,18.45
2019-04-30T01:19:01.136Z,19.20
2019-04-30T01:21:31.110Z,20.07
2019-04-30T01:24:00.207Z,19.03
2019-04-30T01:26:31.150Z,18.17
2019-04-30T01:29:02.068Z,20.87
2019-04-30T01:31:37.096Z,20.60
2019-04-30T01:34:05.215Z,20.57
2019-04-30T01:36:32.026Z,19.70
2019-04-30T01:39:01.118Z,20.05
2019-04-30T01:41:31.558Z,20.37
2019-04-30T01:44:03.766Z,21.07
2019-04-30T01:46:32.111Z,20.27
2019-04-30T01:49:01.280Z,19.77
2019-04-30T01:51:30.475Z,21.12
2019-04-30T01:53:59.507Z,19.90
2019-04-30T01:56:30.122Z,18.43
2019-04-30T01:59:00.711Z,19.27
2019-04-30T02:01:31.333Z,19.20
2019-04-30T02:04:00.347Z,19.87
2019-04-30T02:06:29.444Z,20.12
2019-04-30T02:08:59.352Z,19.00
2019-04-30T02:11:29.682Z,19.10
2019-04-30T02:13:59.900Z,18.57
2019-04-30T02:16:29.085Z,19.03
2019-04-30T02:18:59.700Z,18.00
2019-04-30T02:21:30.064Z,18.63
2019-04-30T02:23:59.061Z,18.67
2019-04-30T02:26:28.627Z,17.55
2019-04-30T02:28:59.435Z,17.70
2019-04-30T02:31:30.818Z,17.60
2019-04-30T02:34:22.339Z,16.07
2019-04-30T02:36:55.538Z,17.75
2019-04-30T02:39:24.440Z,17.30
2019-04-30T02:42:05.298Z,18.27
2019-04-30T02:44:35.619Z,17.23
2019-04-30T02:47:07.074Z,17.17
2019-04-30T02:49:39.663Z,17.40
2019-04-30T02:52:09.302Z,17.43
2019-04-30T02:54:40.802Z,17.13
2019-04-30T02:57:11.596Z,17.93
2019-04-30T03:00:00.152Z,17.43
2019-04-30T03:02:29.921Z,17.70
2019-04-30T03:05:00.210Z,16.80
2019-04-30T03:07:29.618Z,18.62
2019-04-30T03:09:59.845Z,18.05
2019-04-30T03:12:33.106Z,18.02
2019-04-30T03:15:00.404Z,19.60
2019-04-30T03:17:31.120Z,19.53
2019-04-30T03:20:03.467Z,18.07
2019-04-30T03:22:32.273Z,19.57
2019-04-30T03:25:01.286Z,19.03
2019-04-30T03:27:30.341Z,19.73
2019-04-30T03:30:00.111Z,19.82
2019-04-30T03:32:31.662Z,19.15
2019-04-30T03:35:03.188Z,19.75
2019-04-30T03:37:30.115Z,18.02
2019-04-30T03:40:00.630Z,18.70
2019-04-30T03:42:29.562Z,18.52
2019-04-30T03:44:59.273Z,18.60
2019-04-30T03:47:29.980Z,17.73
2019-04-30T03:49:59.970Z,16.53
2019-04-30T03:52:29.394Z,17.67
2019-04-30T03:55:02.425Z,19.92
2019-04-30T03:57:30.327Z,18.57
2019-04-30T03:59:59.482Z,19.63
2019-04-30T04:02:30.310Z,18.67
2019-04-30T04:05:03.887Z,22.30
2019-04-30T04:07:53.020Z,21.17
2019-04-30T04:10:35.576Z,20.68
2019-04-30T04:13:04.124Z,20.80
2019-04-30T04:15:33.034Z,20.07
2019-04-30T04:18:01.924Z,18.63
2019-04-30T04:20:30.486Z,17.02
2019-04-30T04:23:05.465Z,17.07
2019-04-30T04:25:36.046Z,15.18
2019-04-30T04:28:06.162Z,14.97
2019-04-30T04:30:35.666Z,15.72
2019-04-30T04:33:05.812Z,14.23
2019-04-30T04:35:49.554Z,16.23
2019-04-30T04:38:20.659Z,15.83
2019-04-30T04:40:50.990Z,16.67
2019-04-30T04:43:20.251Z,16.80
2019-04-30T04:48:49.201Z,17.05
2019-04-30T04:51:33.256Z,16.40
2019-04-30T04:53:46.255Z,18.37
2019-04-30T04:56:15.148Z,19.90
2019-04-30T04:58:44.035Z,19.25
2019-04-30T05:01:12.617Z,18.00
2019-04-30T05:03:41.505Z,17.87
2019-04-30T05:06:11.814Z,16.97
2019-04-30T05:08:41.746Z,18.32
2019-04-30T05:11:10.532Z,17.57
2019-04-30T05:13:39.416Z,17.37
2019-04-30T05:16:09.191Z,18.37
2019-04-30T05:18:39.114Z,17.35
2019-04-30T05:21:08.826Z,19.27
2019-04-30T05:23:41.068Z,21.13
2019-04-30T05:26:08.437Z,24.77
2019-04-30T05:28:39.365Z,24.90
2019-04-30T05:31:08.799Z,20.70
2019-04-30T05:33:39.085Z,15.78
2019-04-30T05:36:09.334Z,16.25
2019-04-30T05:38:39.166Z,17.15
2019-04-30T05:41:09.287Z,16.02
2019-04-30T05:43:38.786Z,16.00
2019-04-30T05:46:08.357Z,15.78
2019-04-30T05:48:39.599Z,12.30
2019-04-30T05:51:08.988Z,12.20
2019-04-30T05:53:39.405Z,12.20
2019-04-30T05:56:09.434Z,11.30
2019-04-30T05:58:39.752Z,10.55
2019-04-30T06:01:09.712Z,11.50
2019-04-30T06:03:39.214Z,11.78
2019-04-30T06:06:08.794Z,11.75
2019-04-30T06:09:04.615Z,11.00
2019-04-30T06:11:43.256Z,11.97
2019-04-30T06:14:22.492Z,10.67
2019-04-30T06:17:11.038Z,11.12
2019-04-30T06:19:39.639Z,11.70
2019-04-30T06:22:10.773Z,11.18
2019-04-30T06:24:39.593Z,11.33
2019-04-30T06:27:10.594Z,12.82
2019-04-30T06:29:39.390Z,12.07
2019-04-30T06:32:08.683Z,11.75
2019-04-30T06:34:41.638Z,11.90
2019-04-30T06:37:09.729Z,12.44
2019-04-30T06:39:39.230Z,11.90
2019-04-30T06:42:12.667Z,12.80
2019-04-30T06:44:41.673Z,12.53
2019-04-30T06:47:09.890Z,12.98
2019-04-30T06:49:39.435Z,12.25
2019-04-30T06:52:19.635Z,12.03
2019-04-30T06:54:39.748Z,12.47
2019-04-30T06:57:09.676Z,13.90
2019-04-30T06:59:40.183Z,13.72
2019-04-30T07:02:09.242Z,13.05
2019-04-30T07:04:40.018Z,13.13
2019-04-30T07:07:09.170Z,12.63
2019-04-30T07:09:58.298Z,12.82
2019-04-30T07:12:44.560Z,14.03
2019-04-30T07:15:13.719Z,14.00
2019-04-30T07:17:43.054Z,15.10
2019-04-30T07:20:11.634Z,15.17
2019-04-30T07:22:48.907Z,16.00
2019-04-30T07:25:10.850Z,16.37
2019-04-30T07:27:40.136Z,15.70
2019-04-30T07:30:10.075Z,16.12
2019-04-30T07:32:39.269Z,10.95
2019-04-30T07:35:09.503Z,11.87
2019-04-30T07:37:39.147Z,10.93
2019-04-30T07:40:09.141Z,12.63
2019-04-30T07:42:44.426Z,13.50
2019-04-30T07:45:09.645Z,12.85
2019-04-30T07:47:39.698Z,13.13
2019-04-30T07:50:10.622Z,13.08
2019-04-30T07:55:09.892Z,16.17
2019-04-30T07:57:40.396Z,16.73
2019-04-30T08:00:09.721Z,17.40
2019-04-30T08:02:43.545Z,19.67
2019-04-30T08:05:12.455Z,19.10
2019-04-30T08:07:41.388Z,19.25
2019-04-30T08:09:35.523Z,14.73
2019-04-30T08:10:10.615Z,21.20
2019-04-30T08:12:43.161Z,20.37
2019-04-30T08:15:10.551Z,23.47
2019-04-30T08:17:39.128Z,26.07
2019-04-30T08:20:08.799Z,27.77
2019-04-30T08:22:40.897Z,33.35
2019-04-30T08:25:09.711Z,39.25
2019-04-30T08:27:39.910Z,40.88
2019-04-30T08:30:20.748Z,40.35
2019-04-30T08:32:39.213Z,40.90
2019-04-30T08:35:09.927Z,39.75
2019-04-30T08:37:39.658Z,39.23
2019-04-30T08:40:08.769Z,40.12
2019-04-30T08:42:39.749Z,39.20
2019-04-30T08:45:09.503Z,39.03
2019-04-30T08:47:39.230Z,39.13
2019-04-30T08:50:09.764Z,37.28
2019-04-30T08:52:39.498Z,39.13
2019-04-30T08:55:15.962Z,37.75
2019-04-30T08:57:39.579Z,36.77
2019-04-30T09:00:09.220Z,36.75
2019-04-30T09:02:39.511Z,38.05
2019-04-30T09:05:12.701Z,35.93
2019-04-30T09:07:41.279Z,35.70
2019-04-30T09:10:10.366Z,34.03
2019-04-30T09:12:39.960Z,35.95
2019-04-30T09:15:09.199Z,27.90
2019-04-30T09:17:38.566Z,27.42
2019-04-30T09:20:09.148Z,29.37
2019-04-30T09:22:39.357Z,24.85
2019-04-30T09:25:09.566Z,23.35
2019-04-30T09:27:39.744Z,22.70
2019-04-30T09:30:10.331Z,26.20
2019-04-30T09:32:39.079Z,26.30
2019-04-30T09:35:09.542Z,20.63
2019-04-30T09:37:41.772Z,16.85
2019-04-30T09:40:18.259Z,20.23
2019-04-30T09:42:40.702Z,19.67
2019-04-30T09:45:09.366Z,19.00
2019-04-30T09:47:41.887Z,14.58
2019-04-30T09:50:10.827Z,20.68
2019-04-30T09:52:39.930Z,17.75
2019-04-30T09:55:09.631Z,18.08
2019-04-30T09:57:39.234Z,14.43
2019-04-30T10:00:12.759Z,19.86
2019-04-30T10:02:41.722Z,22.65
2019-04-30T10:05:11.597Z,17.20
2019-04-30T10:07:41.238Z,20.45
2019-04-30T10:10:12.178Z,17.98
2019-04-30T10:12:40.762Z,15.90
2019-04-30T10:15:11.232Z,13.57
2019-04-30T10:17:41.915Z,16.70
2019-04-30T10:20:11.834Z,16.50
2019-04-30T10:22:41.029Z,21.60
2019-04-30T10:25:10.532Z,18.90
2019-04-30T10:27:39.740Z,15.40
2019-04-30T10:30:09.456Z,15.60
2019-04-30T10:32:38.426Z,17.13
2019-04-30T10:35:07.523Z,18.02
2019-04-30T10:37:38.519Z,14.78
2019-04-30T10:40:10.297Z,15.20
2019-04-30T10:42:39.343Z,15.30
2019-04-30T10:45:09.833Z,16.50
2019-04-30T10:47:39.441Z,15.87
2019-04-30T10:50:11.731Z,18.02
2019-04-30T10:52:40.702Z,19.02
2019-04-30T10:55:09.499Z,17.82
2019-04-30T10:57:40.327Z,18.40
2019-04-30T11:00:18.787Z,16.77
2019-04-30T11:02:49.545Z,15.05
2019-04-30T11:05:18.839Z,18.50
2019-04-30T11:07:49.516Z,15.85
2019-04-30T11:10:18.979Z,14.47
2019-04-30T11:12:48.105Z,23.42
2019-04-30T11:15:16.782Z,22.80
2019-04-30T11:17:45.734Z,23.83
2019-04-30T11:20:15.128Z,24.98
2019-04-30T11:22:44.405Z,22.13
2019-04-30T11:25:13.803Z,24.15
2019-04-30T11:27:43.592Z,22.82
2019-04-30T11:30:22.932Z,22.52
2019-04-30T11:32:43.572Z,22.67
2019-04-30T11:35:12.806Z,23.02
2019-04-30T11:37:41.414Z,23.35
2019-04-30T11:40:11.757Z,25.15
2019-04-30T11:42:40.301Z,22.60
2019-04-30T11:45:09.443Z,29.84
2019-04-30T11:47:38.891Z,27.07
2019-04-30T11:50:09.322Z,26.07
2019-04-30T11:52:39.443Z,25.57
2019-04-30T11:55:09.623Z,25.70
2019-04-30T11:57:39.738Z,25.17
2019-04-30T12:00:11.171Z,22.87
2019-04-30T12:02:41.146Z,23.70
2019-04-30T12:05:10.538Z,26.00
2019-04-30T12:07:44.247Z,25.88
2019-04-30T12:10:14.692Z,26.00
2019-04-30T12:12:43.250Z,23.70
2019-04-30T12:15:13.782Z,26.52
2019-04-30T12:17:42.978Z,23.85
2019-04-30T12:20:11.763Z,24.10
2019-04-30T12:22:41.469Z,24.23
2019-04-30T12:25:10.565Z,24.43
2019-04-30T12:27:39.268Z,24.10
2019-04-30T12:30:08.547Z,21.42
2019-04-30T12:32:39.164Z,23.65
2019-04-30T12:35:07.758Z,21.82
2019-04-30T12:37:36.342Z,22.32
2019-04-30T12:40:06.770Z,20.72
2019-04-30T12:42:35.386Z,20.85
2019-04-30T12:45:04.954Z,20.77
2019-04-30T12:47:35.687Z,21.37
2019-04-30T12:50:19.428Z,22.82
2019-04-30T12:52:55.479Z,21.05
2019-04-30T12:55:25.947Z,21.10
2019-04-30T12:58:01.524Z,21.00
2019-04-30T13:00:30.717Z,22.05
2019-04-30T13:02:59.334Z,20.27
2019-04-30T13:05:29.605Z,20.45
2019-04-30T13:08:00.024Z,19.53
2019-04-30T13:10:29.833Z,21.63
2019-04-30T13:12:59.490Z,19.80
2019-04-30T13:15:28.799Z,19.95
2019-04-30T13:17:58.555Z,20.40
2019-04-30T13:20:29.291Z,19.48
2019-04-30T13:22:58.923Z,21.27
2019-04-30T13:25:35.017Z,19.77
2019-04-30T13:27:59.900Z,18.30
2019-04-30T13:30:30.538Z,19.27
2019-04-30T13:33:09.589Z,20.55
2019-04-30T13:35:38.934Z,19.70
2019-04-30T13:38:09.378Z,20.40
2019-04-30T13:40:45.437Z,18.40
2019-04-30T13:43:15.968Z,16.70
2019-04-30T13:45:45.188Z,19.12
2019-04-30T13:48:13.950Z,18.50
2019-04-30T13:50:42.842Z,17.97
2019-04-30T13:53:11.549Z,18.40
2019-04-30T13:55:45.616Z,18.07
2019-04-30T13:58:10.942Z,17.32
2019-04-30T14:00:39.845Z,14.95
2019-04-30T14:03:15.893Z,18.35
2019-04-30T14:05:45.006Z,17.52
2019-04-30T14:08:15.406Z,17.12
2019-04-30T14:10:44.602Z,15.48
2019-04-30T14:13:13.702Z,16.70
2019-04-30T14:15:43.506Z,17.47
2019-04-30T14:18:12.708Z,17.25
2019-04-30T14:20:42.025Z,17.45
2019-04-30T14:23:10.891Z,16.93
2019-04-30T14:25:39.478Z,13.03
2019-04-30T14:28:09.465Z,13.60
2019-04-30T14:30:39.244Z,17.80
2019-04-30T14:33:09.454Z,17.23
2019-04-30T14:35:38.683Z,12.67
2019-04-30T14:38:09.040Z,14.23
2019-04-30T14:40:40.497Z,14.93
2019-04-30T14:43:10.642Z,12.78
2019-04-30T14:45:50.478Z,14.40
2019-04-30T14:48:23.504Z,15.77
2019-04-30T14:50:51.412Z,12.63
2019-04-30T14:53:23.474Z,15.00
2019-04-30T14:56:15.978Z,12.58
2019-04-30T14:58:51.259Z,11.88
2019-04-30T15:01:37.149Z,11.13
2019-04-30T15:04:06.645Z,12.28
2019-04-30T15:06:35.740Z,13.05
2019-04-30T15:09:07.408Z,12.84
2019-04-30T15:11:41.679Z,12.90
2019-04-30T15:14:16.352Z,13.10
2019-04-30T15:16:48.975Z,13.43
2019-04-30T15:19:54.097Z,14.47
2019-04-30T15:22:21.434Z,13.27
2019-04-30T15:24:52.108Z,13.50
2019-04-30T15:27:29.107Z,14.23
2019-04-30T15:29:57.525Z,13.35
2019-04-30T15:32:28.457Z,14.33
2019-04-30T15:34:58.780Z,13.70
2019-04-30T15:37:36.369Z,15.17
2019-04-30T15:40:08.955Z,17.20
2019-04-30T15:42:40.273Z,16.55
2019-04-30T15:45:09.301Z,18.40
2019-04-30T15:47:38.738Z,18.10
2019-04-30T15:50:09.783Z,17.37
2019-04-30T15:52:38.714Z,16.23
2019-04-30T15:55:09.210Z,14.20
2019-04-30T15:57:39.547Z,15.38
2019-04-30T16:00:08.544Z,11.70
2019-04-30T16:02:39.188Z,12.95
2019-04-30T16:05:12.768Z,14.50
2019-04-30T16:07:43.291Z,15.03
2019-04-30T16:10:19.681Z,12.83
2019-04-30T16:13:03.252Z,13.37
2019-04-30T16:15:32.308Z,13.20
2019-04-30T16:18:05.490Z,14.73
2019-04-30T16:20:34.675Z,15.20
2019-04-30T16:23:03.869Z,14.45
2019-04-30T16:25:32.563Z,15.18
2019-04-30T16:28:01.652Z,14.63
2019-04-30T16:30:30.437Z,16.05
2019-04-30T16:32:59.700Z,15.58
2019-04-30T16:35:29.534Z,13.90
2019-04-30T16:37:59.487Z,14.37
2019-04-30T16:40:29.027Z,14.23
2019-04-30T16:42:58.790Z,16.90
2019-04-30T16:45:29.048Z,18.05
2019-04-30T16:47:59.546Z,16.25
2019-04-30T16:50:29.947Z,16.17
2019-04-30T16:52:58.937Z,17.25
2019-04-30T16:55:30.389Z,16.62
2019-04-30T16:57:59.091Z,15.65
2019-04-30T17:00:30.813Z,15.25
2019-04-30T17:03:04.018Z,14.85
2019-04-30T17:05:43.556Z,13.65
2019-04-30T17:08:14.340Z,12.37
2019-04-30T17:10:44.511Z,15.65
2019-04-30T17:13:32.651Z,13.63
2019-04-30T17:16:03.285Z,15.10
2019-04-30T17:18:32.277Z,14.28
2019-04-30T17:21:01.373Z,15.03
2019-04-30T17:23:30.255Z,16.50
2019-04-30T17:25:58.962Z,14.78
2019-04-30T17:28:29.402Z,13.70
2019-04-30T17:30:58.868Z,11.33
2019-04-30T17:33:29.288Z,9.88
2019-04-30T17:35:58.480Z,9.10
2019-04-30T17:38:28.911Z,8.85
2019-04-30T17:40:58.006Z,7.65
2019-04-30T17:43:28.531Z,8.55
2019-04-30T17:45:58.906Z,7.47
2019-04-30T17:48:30.909Z,7.15
2019-04-30T17:50:59.616Z,7.90
2019-04-30T17:53:30.151Z,7.83
2019-04-30T17:55:59.435Z,8.25
2019-04-30T17:58:28.137Z,8.58
2019-04-30T18:01:00.384Z,8.33
2019-04-30T18:03:29.006Z,7.47
2019-04-30T18:05:59.258Z,8.30
2019-04-30T18:08:28.384Z,8.93
2019-04-30T18:10:57.580Z,8.88
2019-04-30T18:13:26.876Z,8.77
2019-04-30T18:15:55.772Z,8.20
2019-04-30T18:18:28.959Z,8.27
2019-04-30T18:21:13.535Z,7.60
2019-04-30T18:23:53.052Z,6.37
2019-04-30T18:26:22.886Z,8.25
2019-04-30T18:28:51.556Z,7.17
2019-04-30T18:31:23.304Z,6.87
2019-04-30T18:33:52.192Z,13.60
2019-04-30T18:36:24.765Z,10.20
2019-04-30T18:38:53.803Z,11.60
2019-04-30T18:41:22.468Z,10.83
2019-04-30T18:43:54.350Z,10.28
2019-04-30T18:46:22.893Z,8.40
2019-04-30T18:48:52.856Z,8.05
2019-04-30T18:54:18.370Z,6.37
2019-04-30T18:56:49.597Z,6.33
2019-04-30T18:59:23.425Z,6.23
2019-04-30T19:01:53.104Z,5.75
2019-04-30T19:04:22.426Z,5.92
2019-04-30T19:06:57.463Z,4.77
2019-04-30T19:09:42.347Z,5.40
2019-04-30T19:12:29.239Z,6.20
2019-04-30T19:15:18.992Z,6.20
2019-04-30T19:18:05.684Z,6.45
2019-04-30T19:20:39.413Z,7.00
2019-04-30T19:23:09.956Z,7.25
2019-04-30T19:25:38.639Z,6.50
2019-04-30T19:28:13.625Z,7.10
2019-04-30T19:30:39.852Z,7.53
2019-04-30T19:33:08.866Z,7.10
2019-04-30T19:35:37.550Z,7.75
2019-04-30T19:38:06.731Z,6.97
2019-04-30T19:40:35.841Z,7.33
2019-04-30T19:43:05.944Z,7.45
2019-04-30T19:45:36.079Z,7.55
2019-04-30T19:48:05.888Z,7.53
2019-04-30T19:50:34.453Z,7.87
2019-04-30T19:53:03.359Z,6.85
2019-04-30T19:55:32.351Z,7.50
2019-04-30T19:58:01.235Z,7.17
2019-04-30T20:00:31.530Z,7.03
2019-04-30T20:03:01.272Z,6.95
2019-04-30T20:05:30.574Z,6.53
2019-04-30T20:07:59.685Z,7.15
2019-04-30T20:10:33.076Z,7.73
2019-04-30T20:13:03.290Z,7.05
2019-04-30T20:15:31.965Z,7.97
2019-04-30T20:18:01.083Z,8.70
2019-04-30T20:20:30.561Z,8.25
2019-04-30T20:22:59.643Z,8.80
2019-04-30T20:25:30.885Z,9.73
2019-04-30T20:28:00.161Z,10.53
2019-04-30T20:30:29.908Z,11.15
2019-04-30T20:32:59.522Z,10.90
2019-04-30T20:35:29.128Z,11.03
2019-04-30T20:41:05.504Z,11.45
2019-04-30T20:43:35.458Z,9.98
2019-04-30T20:46:04.673Z,9.83
2019-04-30T20:48:34.301Z,11.00
2019-04-30T20:51:02.908Z,10.60
2019-04-30T20:53:32.304Z,10.95
2019-04-30T20:56:01.375Z,10.68
2019-04-30T20:58:30.267Z,13.27
2019-04-30T21:01:04.070Z,12.80
2019-04-30T21:03:29.672Z,13.20
2019-04-30T21:06:00.522Z,13.97
2019-04-30T21:08:29.104Z,12.87
2019-04-30T21:10:59.361Z,13.93
2019-04-30T21:13:29.481Z,14.18
2019-04-30T21:15:59.485Z,12.35
2019-04-30T21:18:32.024Z,13.03
2019-04-30T21:20:59.683Z,15.00
2019-04-30T21:23:30.147Z,15.13
2019-04-30T21:25:59.144Z,14.95
2019-04-30T21:28:29.699Z,15.78
2019-04-30T21:31:00.368Z,15.03
2019-04-30T21:33:34.318Z,14.87
2019-04-30T21:36:08.781Z,13.90
2019-04-30T21:38:38.958Z,15.95
2019-04-30T21:41:09.954Z,14.63
2019-04-30T21:43:38.647Z,16.00
2019-04-30T21:46:09.369Z,16.67
2019-04-30T21:48:38.845Z,17.70
2019-04-30T21:51:09.389Z,17.00
2019-04-30T21:53:39.637Z,18.33
2019-04-30T21:56:08.509Z,17.62
2019-04-30T21:58:39.285Z,17.23
2019-04-30T22:01:10.900Z,16.45
2019-04-30T22:03:42.148Z,18.23
2019-04-30T22:06:10.975Z,18.17
2019-04-30T22:08:39.516Z,18.37
2019-04-30T22:11:09.789Z,19.07
2019-04-30T22:13:40.045Z,18.23
2019-04-30T22:16:09.555Z,18.70
2019-04-30T22:18:38.143Z,17.90
2019-04-30T22:21:06.729Z,18.73
2019-04-30T22:23:35.735Z,19.07
2019-04-30T22:26:05.627Z,17.70
2019-04-30T22:28:34.218Z,18.55
2019-04-30T22:31:03.100Z,17.90
2019-04-30T22:33:31.683Z,21.10
2019-04-30T22:36:02.104Z,20.80
2019-04-30T22:38:32.536Z,21.90
2019-04-30T22:41:01.119Z,21.57
2019-04-30T22:43:30.005Z,21.00
2019-04-30T22:46:03.091Z,19.47
2019-04-30T22:48:32.183Z,20.32
2019-04-30T22:51:01.383Z,21.12
2019-04-30T22:53:30.271Z,20.00
2019-04-30T22:55:58.869Z,18.87
2019-04-30T22:58:29.400Z,17.98
2019-04-30T23:01:08.482Z,19.07
2019-04-30T23:03:37.093Z,20.40
2019-04-30T23:06:06.705Z,19.15
2019-04-30T23:08:35.896Z,21.30
2019-04-30T23:11:06.011Z,21.10
2019-04-30T23:13:34.591Z,20.35
2019-04-30T23:16:03.503Z,20.85
2019-04-30T23:18:32.321Z,20.82
2019-04-30T23:21:01.263Z,21.30
2019-04-30T23:23:29.849Z,21.05
2019-04-30T23:25:58.738Z,22.00
2019-04-30T23:28:28.956Z,20.85
2019-04-30T23:30:57.537Z,21.35
2019-04-30T23:33:26.636Z,20.80
2019-04-30T23:35:55.523Z,20.13
2019-04-30T23:38:24.413Z,21.37
2019-04-30T23:40:53.303Z,20.20
2019-04-30T23:43:21.883Z,20.40
2019-04-30T23:45:50.583Z,21.15
2019-04-30T23:48:20.788Z,20.08
2019-04-30T23:50:49.370Z,19.82
2019-04-30T23:53:17.953Z,17.93
2019-04-30T23:55:46.840Z,20.73
2019-04-30T23:58:15.727Z,21.57
